Latest Coastal Weather Observations for Frankston

IDV60701

Issued at 9:31 pm EST Wednesday 27 July 2016 (issued every 10 minutes, with the page automatically refreshed every 10 minutes)

About coastal observations | Map of coastal stations | Coastal observations for VIC | Marine services | Other Formats
Station Details ID: 086371 Name: FRANKSTON AWS Lat: -38.15 Lon: 145.12 Height: 6.0 m
Data from the previous 72 hours. | See also: Recent months at Frankston
Date/Time
EST
Temp
°C
Wind Pressure Rain since
9am
mm
Weather Cloud Vis
km
Sea
Height
m
Swell
Dir  Spd
kts
Gust
kts
hPa Trend Height
m
Period
s
Dir
27/09:30pm 10.1 NW 15 19 - - - - - - - - - -
27/09:00pm 10.1 WNW 15 18 - - - - - - - - - -
27/08:30pm 10.2 WNW 15 19 - - - - - - - - - -
27/08:00pm 10.1 WNW 15 19 - - - - - - - - - -
27/07:30pm 10.4 WNW 16 20 - - - - - - - - - -
27/07:00pm 10.4 WNW 14 17 - - - - - - - - - -
27/06:30pm 10.3 WNW 16 21 - - - - - - - - - -
27/06:00pm 10.4 WNW 16 20 - - - - - - - - - -
27/05:30pm 10.1 WNW 16 19 - - - - - - - - - -
27/05:00pm 10.6 WNW 17 21 - - - - - - - - - -
27/04:30pm 10.5 WNW 15 17 - - - - - - - - - -
27/04:00pm 10.5 W 10 14 - - - - - - - - - -
27/03:30pm 10.3 WNW 9 12 - - - - - - - - - -
27/03:00pm 10.1 W 11 12 - - - - - - - - - -
27/02:30pm 9.7 W 10 12 - - - - - - - - - -
27/02:00pm 9.3 W 17 23 - - - - - - - - - -
27/01:30pm 10.5 W 15 18 - - - - - - - - - -
27/01:00pm 10.4 WSW 15 17 - - - - - - - - - -
27/12:30pm 9.3 WSW 14 23 - - - - - - - - - -
27/12:00pm 9.1 WSW 20 25 - - - - - - - - - -
27/11:47am 10.2 WSW 15 27 - - - - - - - - - -
27/11:30am 10.5 WSW 13 19 - - - - - - - - - -
27/11:00am 9.9 W 13 15 - - - - - - - - - -
27/10:30am 10.1 SW 15 20 - - - - - - - - - -
27/10:00am 10.4 SW 9 11 - - - - - - - - - -
27/09:38am 9.7 WSW 12 21 - - - - - - - - - -
27/09:30am 10.5 SW 7 11 - - - - - - - - - -
27/09:00am 10.3 SW 9 14 - - - - - - - - - -
27/08:30am 10.0 SW 6 10 - - - - - - - - - -
27/08:00am 9.8 WSW 9 13 - - - - - - - - - -
27/07:30am 9.6 WNW 18 22 - - - - - - - - - -
27/07:00am 10.2 WNW 15 19 - - - - - - - - - -
27/06:30am 10.1 NW 15 18 - - - - - - - - - -
27/06:00am 10.1 NW 14 17 - - - - - - - - - -
27/05:30am 9.9 NNW 13 16 - - - - - - - - - -
27/05:00am 10.0 NNW 15 17 - - - - - - - - - -
27/04:30am 9.9 NNW 13 17 - - - - - - - - - -
27/04:00am 9.6 NNW 14 17 - - - - - - - - - -
27/03:30am 9.5 N 15 19 - - - - - - - - - -
27/03:00am 9.4 N 17 21 - - - - - - - - - -
27/02:30am 9.7 N 17 21 - - - - - - - - - -
27/02:00am 9.7 N 17 21 - - - - - - - - - -
27/01:30am 9.9 N 19 25 - - - - - - - - - -
27/01:00am 10.1 N 20 25 - - - - - - - - - -
27/12:30am 10.2 N 18 23 - - - - - - - - - -
27/12:00am 10.2 N 19 25 - - - - - - - - - -
 
Date/Time
EST
Temp
°C
Wind Pressure Rain since
9am
mm
Weather Cloud Vis
km
Sea
Height
m
Swell
Dir  Spd
kts
Gust
kts
hPa Trend Height
m
Period
s
Dir
26/11:30pm 10.4 N 21 28 - - - - - - - - - -
26/11:00pm 10.4 N 20 25 - - - - - - - - - -
26/10:30pm 10.1 N 21 25 - - - - - - - - - -
26/10:00pm 10.1 N 21 25 - - - - - - - - - -
26/09:30pm 10.2 N 20 25 - - - - - - - - - -
26/09:00pm 10.0 N 18 23 - - - - - - - - - -
26/08:30pm 9.8 N 19 23 - - - - - - - - - -
26/08:00pm 9.8 N 20 24 - - - - - - - - - -
26/07:30pm 9.8 N 21 25 - - - - - - - - - -
26/07:00pm 9.8 N 20 28 - - - - - - - - - -
26/06:30pm 9.9 N 19 24 - - - - - - - - - -
26/06:00pm 10.1 N 19 24 - - - - - - - - - -
26/05:30pm 10.1 N 17 21 - - - - - - - - - -
26/05:00pm 10.1 N 17 22 - - - - - - - - - -
26/04:30pm 10.0 N 16 20 - - - - - - - - - -
26/04:00pm 10.2 N 15 18 - - - - - - - - - -
26/03:30pm 10.0 N 16 19 - - - - - - - - - -
26/03:00pm 9.9 N 19 25 - - - - - - - - - -
26/02:30pm 9.7 N 21 26 - - - - - - - - - -
26/02:00pm 9.6 N 17 23 - - - - - - - - - -
26/01:30pm 9.3 N 19 25 - - - - - - - - - -
26/01:00pm 9.1 N 19 25 - - - - - - - - - -
26/12:30pm 9.1 N 21 27 - - - - - - - - - -
26/12:00pm 9.2 NNW 19 25 - - - - - - - - - -
26/11:30am 8.9 NNW 20 25 - - - - - - - - - -
26/11:00am 8.8 NNW 19 25 - - - - - - - - - -
26/10:30am 8.5 N 18 21 - - - - - - - - - -
26/10:00am 8.4 N 16 23 - - - - - - - - - -
26/09:30am 8.2 N 16 19 - - - - - - - - - -
26/09:00am 8.8 NNW 18 22 - - - - - - - - - -
26/08:30am 8.7 NNW 18 21 - - - - - - - - - -
26/08:00am 8.7 NNW 15 19 - - - - - - - - - -
26/07:30am 8.4 NW 17 20 - - - - - - - - - -
26/07:00am 8.5 NW 17 20 - - - - - - - - - -
26/06:30am 8.7 NW 18 22 - - - - - - - - - -
26/06:00am 8.8 NW 17 21 - - - - - - - - - -
26/05:30am 8.6 NW 16 21 - - - - - - - - - -
26/05:00am 8.7 NW 16 22 - - - - - - - - - -
26/04:30am 8.9 WNW 19 26 - - - - - - - - - -
26/04:00am 8.8 WNW 20 24 - - - - - - - - - -
26/03:30am 8.9 NW 20 29 - - - - - - - - - -
26/03:00am 9.2 NW 20 26 - - - - - - - - - -
26/02:30am 9.4 NW 22 28 - - - - - - - - - -
26/02:00am 9.2 NW 20 25 - - - - - - - - - -
26/01:30am 9.3 WNW 22 29 - - - - - - - - - -
26/01:03am 9.5 WNW 22 34 - - - - - - - - - -
26/01:00am 9.5 WNW 22 29 - - - - - - - - - -
26/12:30am 9.6 WNW 18 22 - - - - - - - - - -
26/12:00am 9.5 WNW 24 30 - - - - - - - - - -
 
Date/Time
EST
Temp
°C
Wind Pressure Rain since
9am
mm
Weather Cloud Vis
km
Sea
Height
m
Swell
Dir  Spd
kts
Gust
kts
hPa Trend Height
m
Period
s
Dir
25/11:30pm 9.3 WNW 24 31 - - - - - - - - - -
25/11:00pm 9.6 WNW 25 32 - - - - - - - - - -
25/10:30pm 9.6 WNW 24 32 - - - - - - - - - -
25/10:06pm 10.1 WNW 22 32 - - - - - - - - - -
25/10:00pm 10.2 WNW 24 30 - - - - - - - - - -
25/09:30pm 10.3 WNW 23 31 - - - - - - - - - -
25/09:00pm 10.3 WNW 21 28 - - - - - - - - - -
25/08:30pm 10.5 WNW 24 33 - - - - - - - - - -
25/08:03pm 11.1 NW 26 36 - - - - - - - - - -
25/08:00pm 11.2 NW 24 33 - - - - - - - - - -
25/07:30pm 10.8 NW 22 29 - - - - - - - - - -
25/07:00pm 9.6 NW 22 27 - - - - - - - - - -
25/06:30pm 8.0 WNW 27 39 - - - - - - - - - -
25/06:28pm 8.4 WNW 25 39 - - - - - - - - - -
25/06:15pm 11.1 NNW 22 29 - - - - - - - - - -
25/06:00pm 11.9 N 25 33 - - - - - - - - - -
25/05:48pm 12.1 N 26 36 - - - - - - - - - -
25/05:30pm 12.1 N 26 35 - - - - - - - - - -
25/05:00pm 12.1 N 22 28 - - - - - - - - - -
25/04:34pm 12.2 N 20 30 - - - - - - - - - -
25/04:30pm 12.2 N 22 31 - - - - - - - - - -
25/04:21pm 12.4 N 22 32 - - - - - - - - - -
25/04:00pm 12.5 N 21 26 - - - - - - - - - -
25/03:30pm 12.4 N 20 25 - - - - - - - - - -
25/03:00pm 12.3 N 19 25 - - - - - - - - - -
25/02:30pm 12.3 N 18 23 - - - - - - - - - -
25/02:00pm 12.0 NNW 15 20 - - - - - - - - - -
25/01:30pm 11.7 NNW 15 19 - - - - - - - - - -
25/01:00pm 11.5 NNW 16 18 - - - - - - - - - -
25/12:30pm 11.2 NNW 15 19 - - - - - - - - - -
25/12:00pm 11.2 NW 15 19 - - - - - - - - - -
25/11:30am 11.0 NW 15 17 - - - - - - - - - -
25/11:00am 10.6 NW 13 15 - - - - - - - - - -
25/10:30am 10.5 NW 16 22 - - - - - - - - - -
25/10:00am 10.3 NW 17 22 - - - - - - - - - -
25/09:30am 10.2 NW 15 19 - - - - - - - - - -
25/09:00am 10.2 NNW 15 19 - - - - - - - - - -
25/08:30am 10.1 NNW 16 18 - - - - - - - - - -
25/08:00am 10.1 NNW 14 19 - - - - - - - - - -
25/07:30am 10.0 NNW 16 19 - - - - - - - - - -
25/07:00am 10.1 NNW 15 19 - - - - - - - - - -
25/06:30am 9.9 NNW 17 21 - - - - - - - - - -
25/06:00am 10.1 N 16 21 - - - - - - - - - -
25/05:30am 9.9 NNW 17 20 - - - - - - - - - -
25/05:00am 9.7 N 15 19 - - - - - - - - - -
25/04:30am 9.4 N 16 20 - - - - - - - - - -
25/04:00am 9.4 N 17 21 - - - - - - - - - -
25/03:30am 9.0 N 17 21 - - - - - - - - - -
25/03:00am 8.9 N 16 21 - - - - - - - - - -
25/02:30am 8.9 N 15 18 - - - - - - - - - -
25/02:00am 9.1 N 14 18 - - - - - - - - - -
25/01:30am 9.2 N 15 19 - - - - - - - - - -
25/01:00am 9.3 N 16 19 - - - - - - - - - -
25/12:30am 9.6 N 15 18 - - - - - - - - - -
25/12:00am 9.5 N 15 19 - - - - - - - - - -
 
Date/Time
EST
Temp
°C
Wind Pressure Rain since
9am
mm
Weather Cloud Vis
km
Sea
Height
m
Swell
Dir  Spd
kts
Gust
kts
hPa Trend Height
m
Period
s
Dir
24/11:30pm 9.5 N 16 20 - - - - - - - - - -
24/11:00pm 9.6 N 15 20 - - - - - - - - - -
24/10:30pm 9.4 N 16 20 - - - - - - - - - -
24/10:00pm 9.6 N 16 21 - - - - - - - - - -

Other Formats:

Comma delimited format used in spreadsheet applications
http://www.bom.gov.au/fwo/IDV60701/IDV60701.94871.axf

JavaScript Object Notation format (JSON) in row-major order
http://www.bom.gov.au/fwo/IDV60701/IDV60701.94871.json